Messwerte Bangui

Temperatur

Temperatur
°C
1659884400 16.00 16.00
1659888000 17.00 17.00
1659891600 18.00 18.00
1659895200 19.00 19.00
1659898800 20.00 20.00
1659902400 21.00 21.00
1659906000 22.00 22.00
1659909600 23.00 23.00
1659913200 0.00 0.00
1659916800 1.00 1.00 22
1659920400 2.00 2.00 22
1659924000 3.00 3.00
1659927600 4.00 4.00 22
1659931200 5.00 5.00 22
1659934800 6.00 6.00 22
1659938400 7.00 7.00 22
1659942000 8.00 8.00 23
1659945600 9.00 9.00 26
1659949200 10.00 10.00 27
1659952800 11.00 11.00 29
1659956400 12.00 12.00 30
1659960000 13.00 13.00 31
1659963600 14.00 14.00
1659967200 15.00 15.00 31

Aktuellste Messwerte

Wettercharakter
Wetter: wechselnd bewölkt
Temperatur
31 °C
Feuchtigkeit
65 %
Wind
5 km/h, -
Luftdruck
1008 hPa
Messzeit: 8. August 2022, 15.00Datenquelle: METAR

Wind

Windrichtung Böen Mittelwind
° km/h km/h
1659884400 16.00 15.00 - 16.00
1659888000 17.00 16.00 - 17.00
1659891600 18.00 17.00 - 18.00
1659895200 19.00 18.00 - 19.00
1659898800 20.00 19.00 - 20.00
1659902400 21.00 20.00 - 21.00
1659906000 22.00 21.00 - 22.00
1659909600 23.00 22.00 - 23.00
1659913200 0.00 23.00 - 0.00
1659916800 1.00 0.00 - 1.00 0
1659920400 2.00 1.00 - 2.00 0
1659924000 3.00 2.00 - 3.00
1659927600 4.00 3.00 - 4.00 0
1659931200 5.00 4.00 - 5.00 0
1659934800 6.00 5.00 - 6.00 0
1659938400 7.00 6.00 - 7.00 0
1659942000 8.00 7.00 - 8.00 5
1659945600 9.00 8.00 - 9.00 5
1659949200 10.00 9.00 - 10.00 5
1659952800 11.00 10.00 - 11.00 250° 5
1659956400 12.00 11.00 - 12.00 210° 5
1659960000 13.00 12.00 - 13.00 5
1659963600 14.00 13.00 - 14.00
1659967200 15.00 14.00 - 15.00 5

Ihre Wetterstation

Fehlt Ihre Wetterstation auf unserem Portal?

Schreiben Sie an network@meteonews.ch